Time;durP1;ratioP1;P1;durP2;ratioP2;P2;SDS_P1;SDS_P2;PMS_P1;PMS_P2;Temp;Humidity;BMP_temperature;BMP_pressure;BME280_temperature;BME280_humidity;BME280_pressure;Samples;Min_cycle;Max_cycle;Signal;HPM_P1;HPM_P2
2022/08/20 05:00:40;;;;;;;3.03;2.70;;;21.00;97.20;;;;;;1734350;28;20184;-71
2022/08/20 05:01:32;;;;;;;3.20;2.90;;;21.00;97.20;;;;;;1734202;28;20339;-72
2022/08/20 05:02:23;;;;;;;2.67;2.47;;;21.00;97.20;;;;;;1733936;28;20203;-71
2022/08/20 05:03:15;;;;;;;3.10;2.80;;;21.00;97.20;;;;;;1734270;28;20196;-71
2022/08/20 05:04:06;;;;;;;3.00;2.80;;;21.00;97.20;;;;;;1733892;28;20221;-71
2022/08/20 05:04:57;;;;;;;3.95;2.35;;;21.00;97.20;;;;;;1734130;28;20211;-71
2022/08/20 05:05:50;;;;;;;3.10;2.63;;;21.00;97.20;;;;;;1734162;28;20196;-71
2022/08/20 05:06:41;;;;;;;2.80;2.60;;;21.00;97.20;;;;;;1734262;28;20238;-70
2022/08/20 05:07:39;;;;;;;3.93;2.53;;;21.00;97.20;;;;;;1734237;28;20203;-70
2022/08/20 05:08:29;;;;;;;3.10;2.60;;;21.00;97.20;;;;;;1734142;28;20215;-71
2022/08/20 05:09:21;;;;;;;2.70;2.50;;;21.00;97.20;;;;;;1731075;28;20196;-71
2022/08/20 05:10:15;;;;;;;2.60;2.40;;;21.00;97.20;;;;;;1732568;28;20453;-71
2022/08/20 05:11:08;;;;;;;3.03;2.72;;;21.10;97.20;;;;;;1730377;28;20246;-71
2022/08/20 05:11:59;;;;;;;3.10;2.90;;;21.10;97.20;;;;;;1734093;28;20238;-70
2022/08/20 05:12:50;;;;;;;3.00;2.63;;;21.00;97.20;;;;;;1733941;28;20196;-71
2022/08/20 05:13:41;;;;;;;4.22;2.35;;;21.10;97.20;;;;;;1733603;28;20483;-71
2022/08/20 05:14:33;;;;;;;2.93;2.67;;;21.10;97.20;;;;;;1734080;28;20214;-70
2022/08/20 05:15:24;;;;;;;2.90;2.70;;;21.00;97.20;;;;;;1733947;28;20446;-71
2022/08/20 05:16:18;;;;;;;3.10;2.90;;;21.00;97.20;;;;;;1734021;28;20207;-70
2022/08/20 05:17:09;;;;;;;3.15;2.53;;;21.00;97.20;;;;;;1731548;28;20203;-70
2022/08/20 05:18:04;;;;;;;2.93;2.73;;;21.00;97.20;;;;;;1733635;28;20196;-70
2022/08/20 05:18:55;;;;;;;2.63;2.42;;;21.00;97.20;;;;;;1734062;28;20207;-71
2022/08/20 05:19:47;;;;;;;2.70;2.50;;;21.00;97.20;;;;;;1733917;28;20191;-71
2022/08/20 05:20:40;;;;;;;2.70;2.50;;;21.00;97.20;;;;;;1733938;28;20215;-71
2022/08/20 05:21:32;;;;;;;3.00;2.80;;;21.00;97.20;;;;;;1733892;28;20199;-71
2022/08/20 05:22:23;;;;;;;2.70;2.50;;;21.00;97.20;;;;;;1733944;28;20204;-71
2022/08/20 05:23:18;;;;;;;3.80;2.90;;;21.00;97.20;;;;;;1733996;28;20191;-71
2022/08/20 05:24:10;;;;;;;3.10;2.80;;;21.00;97.20;;;;;;1733613;28;20220;-71
2022/08/20 05:25:04;;;;;;;2.55;2.35;;;21.00;97.20;;;;;;1733794;28;20208;-71
2022/08/20 05:25:56;;;;;;;3.15;2.53;;;21.00;97.20;;;;;;1733993;28;20232;-71
2022/08/20 05:26:48;;;;;;;2.75;2.55;;;21.00;97.20;;;;;;1733792;28;20261;-71
2022/08/20 05:27:40;;;;;;;2.60;2.40;;;21.00;97.20;;;;;;1733421;28;20238;-72
2022/08/20 05:28:33;;;;;;;2.70;2.50;;;21.00;97.20;;;;;;1734014;28;20670;-71
2022/08/20 05:29:24;;;;;;;2.50;2.30;;;21.00;97.20;;;;;;1733535;28;20200;-70
2022/08/20 05:30:16;;;;;;;3.63;2.38;;;21.00;97.20;;;;;;1733590;28;20199;-71
2022/08/20 05:31:08;;;;;;;2.88;2.67;;;21.00;97.20;;;;;;1733332;28;20203;-70
2022/08/20 05:32:01;;;;;;;2.90;2.70;;;21.00;97.20;;;;;;1733450;28;20188;-70
2022/08/20 05:32:52;;;;;;;3.03;2.83;;;21.00;97.20;;;;;;1733570;28;20578;-70
2022/08/20 05:33:44;;;;;;;2.88;2.50;;;21.00;97.20;;;;;;1733514;28;20228;-70
2022/08/20 05:34:35;;;;;;;2.80;2.60;;;21.00;97.20;;;;;;1734136;28;20690;-70
2022/08/20 05:35:28;;;;;;;2.70;2.50;;;21.00;97.20;;;;;;1734067;28;20687;-70
2022/08/20 05:36:20;;;;;;;2.78;2.58;;;21.00;97.20;;;;;;1734128;28;20211;-70
2022/08/20 05:37:12;;;;;;;2.78;2.25;;;21.00;97.20;;;;;;1733848;28;20196;-70
2022/08/20 05:38:03;;;;;;;2.70;2.50;;;21.00;97.20;;;;;;1734127;28;20210;-70
2022/08/20 05:38:55;;;;;;;2.80;2.60;;;21.00;97.20;;;;;;1734123;28;20726;-70
2022/08/20 05:39:46;;;;;;;3.47;2.35;;;21.00;97.20;;;;;;1733957;28;20203;-70
2022/08/20 05:40:39;;;;;;;2.80;2.60;;;21.00;97.20;;;;;;1733499;28;20231;-70
2022/08/20 05:41:29;;;;;;;2.78;2.58;;;21.00;97.20;;;;;;1733721;28;20204;-70
2022/08/20 05:42:21;;;;;;;4.77;2.80;;;21.00;97.20;;;;;;1734171;28;20210;-70
2022/08/20 05:43:13;;;;;;;2.83;2.63;;;21.00;97.20;;;;;;1734122;28;20292;-70
2022/08/20 05:44:08;;;;;;;2.80;2.60;;;21.00;97.20;;;;;;1733687;28;20286;-70
2022/08/20 05:44:59;;;;;;;3.38;2.90;;;21.00;97.20;;;;;;1733976;28;20203;-70
2022/08/20 05:45:51;;;;;;;2.63;2.43;;;21.00;97.20;;;;;;1734103;28;20204;-70
2022/08/20 05:46:44;;;;;;;3.00;2.80;;;21.00;97.20;;;;;;1734015;28;20215;-70
2022/08/20 05:47:40;;;;;;;3.90;3.60;;;21.00;97.20;;;;;;1733575;28;20192;-70
2022/08/20 05:48:34;;;;;;;3.63;3.25;;;21.00;97.20;;;;;;1726942;28;20291;-70
2022/08/20 05:49:25;;;;;;;3.40;2.83;;;21.00;97.20;;;;;;1726892;28;20197;-70
2022/08/20 05:50:17;;;;;;;3.70;3.40;;;21.00;97.20;;;;;;1727094;28;20235;-70
2022/08/20 05:51:09;;;;;;;4.15;3.28;;;21.00;97.20;;;;;;1727251;28;20192;-70
2022/08/20 05:52:00;;;;;;;3.20;3.00;;;21.00;97.20;;;;;;1726793;28;20204;-70
2022/08/20 05:52:52;;;;;;;3.37;3.07;;;21.00;97.20;;;;;;1726840;28;20332;-70
2022/08/20 05:53:43;;;;;;;2.80;2.60;;;21.00;97.20;;;;;;1726293;28;21065;-70
2022/08/20 05:54:36;;;;;;;3.43;3.13;;;21.00;97.20;;;;;;1726858;28;20756;-70
2022/08/20 05:55:27;;;;;;;3.20;3.00;;;21.00;97.20;;;;;;1727779;28;20219;-70
2022/08/20 05:56:19;;;;;;;4.15;3.50;;;21.10;97.20;;;;;;1734059;28;20228;-70
2022/08/20 05:57:11;;;;;;;3.40;3.20;;;21.10;97.20;;;;;;1733724;28;20666;-70
2022/08/20 05:58:07;;;;;;;3.70;2.90;;;21.10;97.20;;;;;;1734073;28;20210;-70
2022/08/20 05:59:01;;;;;;;3.55;2.88;;;21.10;97.20;;;;;;1733877;28;20704;-70
2022/08/20 05:59:53;;;;;;;3.20;2.90;;;21.10;97.20;;;;;;1733306;28;20196;-70
2022/08/20 06:00:44;;;;;;;2.95;2.75;;;21.10;97.20;;;;;;1733918;28;20223;-70
2022/08/20 06:01:38;;;;;;;4.10;3.05;;;21.10;97.20;;;;;;1734031;28;20254;-70
2022/08/20 06:04:49;;;;;;;3.63;3.33;;;21.10;97.20;;;;;;1734060;28;20274;-70
2022/08/20 06:05:41;;;;;;;3.90;3.53;;;21.10;97.20;;;;;;1733690;28;20274;-70
2022/08/20 06:06:32;;;;;;;3.22;3.00;;;21.10;97.20;;;;;;1734019;28;20204;-70
2022/08/20 06:07:24;;;;;;;3.20;3.00;;;21.10;97.20;;;;;;1734083;28;20680;-70
2022/08/20 06:08:15;;;;;;;3.47;3.17;;;21.20;97.20;;;;;;1733988;28;20204;-70
2022/08/20 06:09:07;;;;;;;3.47;3.17;;;21.20;97.20;;;;;;1733961;28;20194;-70
2022/08/20 06:10:00;;;;;;;3.55;3.30;;;21.20;97.20;;;;;;1733888;28;20440;-70
2022/08/20 06:10:51;;;;;;;3.67;3.38;;;21.20;97.20;;;;;;1733966;28;20205;-70
2022/08/20 06:11:42;;;;;;;3.55;3.25;;;21.20;97.20;;;;;;1733993;28;20291;-70
2022/08/20 06:12:34;;;;;;;3.67;3.37;;;21.20;97.20;;;;;;1734020;28;20298;-70
2022/08/20 06:13:26;;;;;;;3.08;2.78;;;21.30;97.20;;;;;;1733698;28;20226;-70
2022/08/20 06:14:19;;;;;;;3.65;3.38;;;21.30;97.20;;;;;;1733970;28;20265;-70
2022/08/20 06:15:10;;;;;;;3.33;3.10;;;21.30;97.20;;;;;;1733907;28;20581;-70
2022/08/20 06:16:02;;;;;;;3.42;3.13;;;21.30;97.20;;;;;;1733348;28;20192;-70
2022/08/20 06:16:53;;;;;;;4.25;3.05;;;21.30;97.20;;;;;;1733342;28;20196;-70
2022/08/20 06:17:45;;;;;;;3.23;3.03;;;21.30;97.20;;;;;;1734106;28;20282;-70
2022/08/20 06:18:36;;;;;;;3.00;2.80;;;21.30;97.20;;;;;;1733997;28;20659;-70
2022/08/20 06:19:29;;;;;;;3.20;3.00;;;21.30;97.20;;;;;;1734044;28;20627;-70
2022/08/20 06:20:20;;;;;;;3.40;3.10;;;21.30;97.20;;;;;;1733988;28;20200;-70
2022/08/20 06:21:11;;;;;;;2.80;2.60;;;21.30;97.20;;;;;;1734325;28;20726;-70
2022/08/20 06:22:04;;;;;;;3.55;3.35;;;21.30;97.20;;;;;;1735115;28;20211;-70
2022/08/20 06:22:56;;;;;;;3.30;3.08;;;21.30;97.20;;;;;;1735289;28;20207;-70
2022/08/20 06:23:47;;;;;;;3.15;2.95;;;21.30;97.20;;;;;;1734787;28;20225;-70
2022/08/20 06:24:39;;;;;;;3.80;3.50;;;21.20;97.20;;;;;;1735137;28;20651;-70
2022/08/20 06:25:30;;;;;;;3.80;3.50;;;21.20;97.20;;;;;;1734950;28;20199;-70
2022/08/20 06:26:22;;;;;;;3.70;3.40;;;21.20;97.20;;;;;;1728370;28;20200;-70
2022/08/20 06:27:14;;;;;;;3.90;3.60;;;21.20;97.20;;;;;;1728313;28;20459;-70
2022/08/20 06:28:06;;;;;;;3.30;3.10;;;21.30;97.20;;;;;;1728374;28;20318;-70
2022/08/20 06:28:58;;;;;;;3.28;2.95;;;21.30;97.20;;;;;;1728438;28;20208;-70
2022/08/20 06:29:50;;;;;;;4.30;3.85;;;21.30;97.20;;;;;;1728322;28;20553;-71
2022/08/20 06:30:41;;;;;;;3.40;3.10;;;21.30;97.20;;;;;;1728424;28;20585;-70
2022/08/20 06:31:38;;;;;;;3.30;3.00;;;21.30;97.20;;;;;;1728414;28;20287;-70
2022/08/20 06:32:29;;;;;;;3.80;3.38;;;21.30;97.20;;;;;;1728290;28;20451;-70
2022/08/20 06:33:21;;;;;;;3.33;2.97;;;21.30;97.20;;;;;;1728329;28;20287;-70
2022/08/20 06:34:11;;;;;;;3.63;3.33;;;21.30;97.20;;;;;;1728213;28;20221;-70
2022/08/20 06:35:07;;;;;;;3.40;2.93;;;21.30;97.20;;;;;;1728198;28;20204;-70
2022/08/20 06:35:58;;;;;;;3.58;3.28;;;21.30;97.20;;;;;;1732120;28;20674;-70
2022/08/20 06:36:50;;;;;;;4.67;3.60;;;21.30;97.20;;;;;;1735177;28;20200;-70
2022/08/20 06:37:41;;;;;;;4.10;3.70;;;21.30;97.20;;;;;;1735065;28;20585;-70
2022/08/20 06:38:33;;;;;;;3.83;3.55;;;21.30;97.20;;;;;;1735183;28;20798;-70
2022/08/20 06:39:26;;;;;;;3.72;3.45;;;21.30;97.20;;;;;;1735042;28;20200;-70
2022/08/20 06:40:21;;;;;;;4.00;3.65;;;21.30;97.20;;;;;;1735111;28;20199;-70
2022/08/20 06:41:12;;;;;;;4.65;3.95;;;21.20;97.20;;;;;;1735152;28;20385;-70
2022/08/20 06:42:05;;;;;;;3.90;3.60;;;21.20;97.20;;;;;;1735015;28;20203;-70
2022/08/20 06:42:56;;;;;;;4.82;3.20;;;21.20;97.20;;;;;;1735183;28;20566;-70
2022/08/20 06:43:50;;;;;;;3.50;3.20;;;21.20;97.20;;;;;;1734779;28;20247;-70
2022/08/20 06:44:41;;;;;;;3.30;3.10;;;21.20;97.20;;;;;;1734965;28;20204;-70
2022/08/20 06:45:34;;;;;;;3.63;3.33;;;21.20;97.20;;;;;;1734920;28;20250;-70
2022/08/20 06:46:25;;;;;;;3.10;2.90;;;21.20;97.20;;;;;;1733652;28;20219;-70
2022/08/20 06:47:17;;;;;;;4.03;3.63;;;21.20;97.20;;;;;;1734993;28;20199;-70
2022/08/20 06:48:12;;;;;;;4.00;3.70;;;21.20;97.20;;;;;;1735049;28;20200;-70
2022/08/20 06:49:03;;;;;;;4.20;3.53;;;21.20;97.20;;;;;;1734998;28;20235;-70
2022/08/20 06:49:54;;;;;;;3.53;3.28;;;21.20;97.20;;;;;;1735113;28;20203;-70
2022/08/20 06:50:47;;;;;;;3.67;3.37;;;21.20;97.20;;;;;;1734868;28;20310;-70
2022/08/20 06:51:38;;;;;;;4.13;3.75;;;21.20;97.20;;;;;;1734997;28;20560;-70
2022/08/20 06:52:30;;;;;;;3.43;3.23;;;21.20;97.20;;;;;;1734950;28;20587;-70
2022/08/20 06:53:20;;;;;;;3.58;3.28;;;21.20;97.20;;;;;;1734816;28;20199;-70
2022/08/20 06:54:12;;;;;;;4.70;4.30;;;21.20;97.20;;;;;;1734833;28;20240;-70
2022/08/20 06:55:05;;;;;;;4.00;3.70;;;21.20;97.20;;;;;;1734869;28;20199;-70
2022/08/20 06:55:58;;;;;;;4.28;3.85;;;21.20;97.20;;;;;;1734767;28;20231;-70
2022/08/20 06:56:49;;;;;;;3.90;3.60;;;21.20;97.20;;;;;;1734994;28;20199;-70
2022/08/20 06:57:42;;;;;;;3.83;3.53;;;21.20;97.20;;;;;;1734946;28;20207;-70
2022/08/20 06:58:33;;;;;;;3.95;3.55;;;21.20;97.20;;;;;;1735044;28;20218;-70
2022/08/20 06:59:24;;;;;;;4.40;4.00;;;21.30;97.20;;;;;;1734899;28;20279;-70
2022/08/20 07:00:18;;;;;;;4.07;3.67;;;21.30;97.20;;;;;;1734934;28;20200;-70
2022/08/20 07:01:12;;;;;;;3.72;3.42;;;21.30;97.20;;;;;;1734992;28;20663;-70
2022/08/20 07:02:03;;;;;;;4.60;4.20;;;21.20;97.20;;;;;;1735074;28;20223;-70
2022/08/20 07:02:56;;;;;;;3.95;3.65;;;21.30;97.20;;;;;;1735072;28;20261;-70
2022/08/20 07:03:48;;;;;;;4.63;3.97;;;21.30;97.20;;;;;;1734619;28;20307;-70
2022/08/20 07:04:40;;;;;;;4.10;3.70;;;21.30;97.20;;;;;;1734845;28;20568;-70
2022/08/20 07:05:35;;;;;;;4.53;4.18;;;21.30;97.20;;;;;;1734965;28;20261;-70
2022/08/20 07:06:28;;;;;;;4.35;3.95;;;21.30;97.20;;;;;;1734568;28;20188;-70
2022/08/20 07:07:19;;;;;;;4.38;3.97;;;21.30;97.20;;;;;;1734781;28;20207;-70
2022/08/20 07:08:13;;;;;;;3.80;3.50;;;21.30;97.20;;;;;;1734966;28;20200;-70
2022/08/20 07:09:04;;;;;;;4.93;4.53;;;21.30;97.20;;;;;;1734833;28;20290;-70
2022/08/20 07:10:00;;;;;;;4.60;4.00;;;21.30;97.20;;;;;;1734956;28;20248;-70
2022/08/20 07:10:51;;;;;;;9.00;3.50;;;21.30;97.20;;;;;;1734870;28;20255;-70
2022/08/20 07:11:43;;;;;;;4.07;3.77;;;21.30;97.20;;;;;;1734996;28;20207;-70
2022/08/20 07:12:35;;;;;;;3.33;3.13;;;21.30;97.20;;;;;;1734815;28;20469;-70
2022/08/20 07:13:27;;;;;;;4.00;3.70;;;21.30;97.20;;;;;;1734487;28;20196;-70
2022/08/20 07:14:18;;;;;;;3.70;3.33;;;21.30;97.20;;;;;;1734893;28;20208;-70
2022/08/20 07:15:11;;;;;;;4.25;3.85;;;21.30;97.20;;;;;;1734837;28;20602;-70
2022/08/20 07:16:03;;;;;;;4.32;4.03;;;21.30;97.20;;;;;;1734612;28;20207;-70
2022/08/20 07:16:55;;;;;;;3.60;3.30;;;21.40;97.20;;;;;;1734843;28;20222;-70
2022/08/20 07:17:49;;;;;;;4.25;3.85;;;21.40;97.20;;;;;;1734790;28;20203;-69
2022/08/20 07:18:41;;;;;;;3.90;3.60;;;21.40;97.20;;;;;;1734870;28;20593;-70
2022/08/20 07:19:32;;;;;;;3.90;3.60;;;21.40;97.20;;;;;;1734836;28;20207;-70
2022/08/20 07:20:23;;;;;;;3.70;3.40;;;21.50;97.20;;;;;;1734837;28;20279;-70
2022/08/20 07:21:16;;;;;;;3.97;3.55;;;21.50;97.20;;;;;;1734844;28;20442;-70
2022/08/20 07:22:11;;;;;;;4.20;3.90;;;21.50;97.20;;;;;;1734743;28;20265;-70
2022/08/20 07:23:02;;;;;;;4.40;4.00;;;21.50;97.20;;;;;;1734830;28;20777;-70
2022/08/20 07:23:54;;;;;;;4.30;4.00;;;21.50;97.20;;;;;;1734476;28;20279;-70
2022/08/20 07:24:45;;;;;;;4.22;3.90;;;21.50;97.20;;;;;;1734654;28;20204;-70
2022/08/20 07:25:37;;;;;;;3.87;3.57;;;21.50;97.20;;;;;;1734646;28;20208;-70
2022/08/20 07:26:28;;;;;;;4.20;3.50;;;21.50;97.20;;;;;;1734025;28;20200;-70
2022/08/20 07:27:21;;;;;;;4.23;3.93;;;21.50;97.20;;;;;;1734552;28;20239;-71
2022/08/20 07:28:15;;;;;;;3.63;3.42;;;21.40;97.20;;;;;;1734820;28;20493;-70
2022/08/20 07:29:07;;;;;;;4.10;3.80;;;21.40;97.20;;;;;;1734758;28;20216;-70
2022/08/20 07:32:35;;;;;;;4.85;3.65;;;21.40;97.20;;;;;;1734643;28;20241;-70
2022/08/20 07:33:28;;;;;;;4.25;3.85;;;21.40;97.20;;;;;;1734432;28;20283;-71
2022/08/20 07:34:19;;;;;;;3.90;3.60;;;21.40;97.20;;;;;;1734769;28;20204;-70
2022/08/20 07:35:16;;;;;;;3.90;3.60;;;21.40;97.20;;;;;;1734681;28;20275;-70
2022/08/20 07:36:08;;;;;;;4.03;3.72;;;21.40;97.20;;;;;;1734455;28;20254;-70
2022/08/20 07:37:00;;;;;;;3.97;3.65;;;21.50;97.20;;;;;;1734576;28;20203;-71
2022/08/20 07:37:53;;;;;;;4.25;3.90;;;21.50;97.20;;;;;;1734709;28;20573;-70
2022/08/20 07:38:46;;;;;;;3.80;3.50;;;21.50;97.20;;;;;;1734749;28;20239;-71
2022/08/20 07:39:37;;;;;;;4.45;3.85;;;21.60;97.20;;;;;;1734706;28;20613;-70
2022/08/20 07:40:33;;;;;;;3.63;3.33;;;21.60;97.20;;;;;;1734727;28;20315;-70
2022/08/20 07:41:24;;;;;;;5.22;3.60;;;21.60;97.20;;;;;;1734682;28;20215;-70
2022/08/20 07:42:16;;;;;;;3.57;3.00;;;21.60;97.20;;;;;;1734478;28;20194;-70
2022/08/20 07:43:06;;;;;;;5.40;3.72;;;21.60;97.20;;;;;;1734537;28;20443;-71
2022/08/20 07:43:58;;;;;;;3.77;3.47;;;21.70;97.20;;;;;;1734290;28;20215;-71
2022/08/20 07:44:49;;;;;;;4.03;3.72;;;21.70;97.20;;;;;;1734665;28;20662;-70
2022/08/20 07:45:41;;;;;;;4.60;4.18;;;21.70;97.20;;;;;;1734588;28;20199;-70
2022/08/20 07:46:32;;;;;;;3.60;3.40;;;21.80;97.20;;;;;;1734281;28;20207;-70
2022/08/20 07:47:24;;;;;;;4.30;3.90;;;21.80;97.20;;;;;;1734650;28;20198;-70
2022/08/20 07:48:16;;;;;;;3.75;3.45;;;21.80;97.20;;;;;;1734743;28;20199;-71
2022/08/20 07:49:08;;;;;;;3.80;3.50;;;21.80;97.20;;;;;;1734667;28;20204;-71
2022/08/20 07:49:59;;;;;;;4.45;4.10;;;21.80;97.20;;;;;;1734591;28;20211;-71
2022/08/20 07:50:51;;;;;;;4.07;3.77;;;21.80;97.20;;;;;;1734627;28;20233;-70
2022/08/20 07:51:41;;;;;;;4.22;3.83;;;21.90;97.20;;;;;;1734485;28;20463;-70
2022/08/20 07:52:34;;;;;;;4.30;3.90;;;21.90;97.20;;;;;;1734665;28;20295;-70
2022/08/20 07:53:26;;;;;;;3.92;3.63;;;21.90;97.20;;;;;;1734114;28;20290;-71
2022/08/20 07:54:18;;;;;;;3.67;3.42;;;21.90;97.20;;;;;;1734621;28;20200;-73
2022/08/20 07:55:11;;;;;;;4.18;3.75;;;21.90;97.20;;;;;;1734524;28;20262;-71
2022/08/20 07:56:05;;;;;;;5.50;3.72;;;22.00;97.20;;;;;;1734220;28;20302;-71
2022/08/20 07:57:01;;;;;;;3.85;3.53;;;22.00;97.20;;;;;;1734496;28;20228;-70
2022/08/20 07:57:53;;;;;;;3.30;3.00;;;22.00;97.20;;;;;;1734649;28;20200;-71
2022/08/20 07:58:48;;;;;;;4.22;3.92;;;22.00;97.20;;;;;;1734578;28;20258;-70
2022/08/20 07:59:40;;;;;;;3.70;3.38;;;22.00;97.20;;;;;;1734589;28;20200;-71
2022/08/20 08:00:31;;;;;;;4.88;3.58;;;22.00;97.20;;;;;;1734689;28;20204;-71
2022/08/20 08:01:27;;;;;;;3.60;3.40;;;22.00;97.20;;;;;;1734628;28;20195;-71
2022/08/20 08:02:18;;;;;;;4.13;3.83;;;22.10;97.20;;;;;;1734647;28;20208;-71
2022/08/20 08:03:10;;;;;;;4.95;4.20;;;22.10;97.20;;;;;;1734547;28;20286;-71
2022/08/20 08:04:01;;;;;;;3.42;3.22;;;22.10;97.20;;;;;;1734225;28;20224;-70
2022/08/20 08:04:53;;;;;;;4.15;3.78;;;22.10;97.20;;;;;;1734260;28;20655;-70
2022/08/20 08:05:47;;;;;;;4.20;3.88;;;22.10;97.20;;;;;;1734497;28;20203;-70
2022/08/20 08:06:44;;;;;;;4.70;4.00;;;22.10;97.20;;;;;;1734410;28;20246;-74
2022/08/20 08:07:36;;;;;;;3.97;3.67;;;22.10;97.20;;;;;;1734618;28;20577;-72
2022/08/20 08:08:31;;;;;;;3.80;3.50;;;22.10;97.20;;;;;;1734527;28;20210;-70
2022/08/20 08:09:21;;;;;;;4.22;3.92;;;22.10;97.20;;;;;;1734489;28;20570;-72
2022/08/20 08:10:17;;;;;;;4.00;3.70;;;22.20;97.20;;;;;;1734670;28;20223;-71
2022/08/20 08:11:08;;;;;;;3.85;3.45;;;22.20;97.20;;;;;;1734483;28;20478;-72
2022/08/20 08:12:01;;;;;;;5.50;3.50;;;22.20;97.20;;;;;;1734493;28;20206;-72
2022/08/20 08:12:56;;;;;;;4.00;3.70;;;22.20;97.20;;;;;;1734647;28;20454;-72
2022/08/20 08:13:48;;;;;;;4.03;3.65;;;22.30;97.20;;;;;;1734120;28;20236;-72
2022/08/20 08:14:41;;;;;;;3.83;3.53;;;22.30;97.20;;;;;;1734093;28;20199;-72
2022/08/20 08:15:37;;;;;;;5.07;3.42;;;22.30;97.20;;;;;;1734203;28;20195;-72
2022/08/20 08:16:31;;;;;;;3.70;3.40;;;22.30;97.20;;;;;;1734481;28;20235;-71
2022/08/20 08:17:23;;;;;;;4.28;3.90;;;22.30;97.20;;;;;;1734510;28;20574;-72
2022/08/20 08:18:17;;;;;;;4.07;3.78;;;22.40;97.20;;;;;;1734357;28;20605;-72
2022/08/20 08:19:10;;;;;;;3.50;3.20;;;22.40;97.20;;;;;;1734478;28;20286;-72
2022/08/20 08:20:04;;;;;;;3.92;3.63;;;22.40;97.20;;;;;;1734481;28;20210;-72
2022/08/20 08:20:56;;;;;;;3.78;3.40;;;22.40;97.20;;;;;;1734478;28;20196;-72
2022/08/20 08:21:48;;;;;;;3.90;3.60;;;22.40;97.20;;;;;;1734448;28;20249;-72
2022/08/20 08:22:41;;;;;;;4.03;3.63;;;22.50;97.20;;;;;;1734610;28;20291;-72
2022/08/20 08:23:33;;;;;;;3.92;3.63;;;22.50;97.20;;;;;;1733772;28;20195;-73
2022/08/20 08:24:25;;;;;;;3.90;3.60;;;22.50;97.20;;;;;;1734497;28;20200;-73
2022/08/20 08:25:16;;;;;;;4.40;4.00;;;22.50;97.20;;;;;;1734033;28;20227;-72
2022/08/20 08:26:08;;;;;;;4.13;3.83;;;22.50;97.20;;;;;;1730855;28;20287;-72
2022/08/20 08:26:59;;;;;;;5.00;3.67;;;22.50;97.20;;;;;;1734355;28;20782;-72
2022/08/20 08:27:50;;;;;;;4.10;3.70;;;22.50;97.20;;;;;;1734367;28;20717;-72
2022/08/20 08:28:43;;;;;;;4.38;3.35;;;22.50;97.20;;;;;;1734323;28;20580;-72
2022/08/20 08:29:34;;;;;;;4.00;3.70;;;22.60;97.20;;;;;;1734409;28;20204;-72
2022/08/20 08:30:27;;;;;;;3.90;3.60;;;22.60;97.20;;;;;;1734299;28;20350;-72
2022/08/20 08:31:18;;;;;;;4.57;4.18;;;22.60;97.20;;;;;;1734413;28;20223;-72
2022/08/20 08:32:09;;;;;;;3.80;3.50;;;22.70;97.20;;;;;;1734403;28;20200;-72
2022/08/20 08:34:10;;;;;;;3.88;3.58;;;22.70;97.20;;;;;;1731655;28;20450;-72
2022/08/20 08:35:07;;;;;;;3.80;3.50;;;22.80;97.20;;;;;;1733290;28;20207;-72
2022/08/20 08:36:03;;;;;;;4.47;4.07;;;22.80;97.20;;;;;;1727531;28;20238;-71
2022/08/20 08:36:54;;;;;;;3.55;3.25;;;22.90;97.20;;;;;;1733330;28;20200;-73
2022/08/20 08:37:46;;;;;;;3.70;3.40;;;22.90;97.20;;;;;;1734402;28;20200;-72
2022/08/20 08:38:40;;;;;;;3.55;3.25;;;23.00;97.20;;;;;;1734216;28;20200;-72
2022/08/20 08:39:33;;;;;;;3.92;3.53;;;23.00;97.20;;;;;;1733917;28;20192;-72
2022/08/20 08:40:23;;;;;;;3.15;2.95;;;23.00;97.20;;;;;;1731722;28;20192;-72
2022/08/20 08:41:19;;;;;;;3.50;3.30;;;23.10;97.20;;;;;;1734082;28;20192;-72
2022/08/20 08:42:24;;;;;;;3.58;3.28;;;23.10;97.20;;;;;;1733823;28;20286;-72
2022/08/20 08:43:19;;;;;;;3.58;3.28;;;23.20;97.20;;;;;;1733994;28;20195;-72
2022/08/20 08:44:20;;;;;;;4.90;3.35;;;23.20;97.20;;;;;;1732990;28;20212;-72
2022/08/20 08:45:15;;;;;;;3.88;3.58;;;23.30;97.20;;;;;;1733679;28;20200;-72
2022/08/20 08:46:10;;;;;;;3.85;3.55;;;23.30;97.20;;;;;;1733582;28;20643;-72
2022/08/20 08:47:17;;;;;;;3.25;3.05;;;23.40;97.20;;;;;;1734158;28;20196;-72
2022/08/20 08:48:09;;;;;;;3.70;3.40;;;23.50;97.20;;;;;;1733838;28;20304;-72
2022/08/20 08:49:01;;;;;;;3.53;3.22;;;23.50;97.20;;;;;;1734064;28;20192;-72
2022/08/20 08:49:52;;;;;;;3.70;3.08;;;23.60;97.20;;;;;;1732104;28;20722;-72
2022/08/20 08:50:46;;;;;;;3.38;3.08;;;23.60;97.20;;;;;;1732389;28;20200;-72
2022/08/20 08:51:41;;;;;;;4.50;3.30;;;23.70;97.20;;;;;;1732581;28;20196;-73
2022/08/20 08:52:36;;;;;;;3.40;3.20;;;23.70;97.20;;;;;;1727016;28;20204;-72
2022/08/20 08:53:35;;;;;;;3.50;3.20;;;23.70;97.20;;;;;;1730441;28;20231;-72
2022/08/20 08:54:30;;;;;;;3.25;3.05;;;23.70;97.20;;;;;;1734179;28;20204;-72
2022/08/20 08:55:21;;;;;;;3.42;3.10;;;23.70;97.20;;;;;;1733804;28;20212;-72
2022/08/20 08:56:14;;;;;;;3.53;3.23;;;23.80;97.20;;;;;;1733605;28;20199;-73
2022/08/20 08:57:07;;;;;;;3.33;3.10;;;23.80;97.20;;;;;;1733701;28;20442;-73
2022/08/20 08:58:03;;;;;;;3.65;3.35;;;23.80;97.20;;;;;;1734285;28;20287;-73
2022/08/20 08:58:56;;;;;;;3.15;2.92;;;23.70;97.20;;;;;;1734278;28;20204;-73
2022/08/20 08:59:54;;;;;;;4.28;3.20;;;23.70;97.20;;;;;;1734263;28;20202;-73
2022/08/20 09:00:46;;;;;;;4.10;3.70;;;23.70;97.20;;;;;;1733654;28;20290;-72
2022/08/20 09:01:44;;;;;;;3.22;3.03;;;23.70;97.20;;;;;;1733665;28;20278;-72
2022/08/20 09:02:37;;;;;;;4.00;3.70;;;23.70;97.20;;;;;;1734364;28;20682;-73
2022/08/20 09:03:33;;;;;;;3.55;3.25;;;23.60;97.20;;;;;;1733899;28;20261;-75
2022/08/20 09:04:30;;;;;;;3.42;3.22;;;23.60;97.20;;;;;;1734270;28;20204;-75
2022/08/20 09:05:27;;;;;;;3.72;3.40;;;23.60;97.20;;;;;;1734139;28;20290;-75
2022/08/20 09:06:22;;;;;;;3.90;3.60;;;23.70;97.20;;;;;;1734253;28;20663;-75
2022/08/20 09:07:15;;;;;;;3.60;3.30;;;23.70;97.20;;;;;;1734232;28;20238;-75
2022/08/20 09:08:12;;;;;;;3.25;3.05;;;23.70;97.20;;;;;;1734169;28;20274;-75
2022/08/20 09:09:04;;;;;;;3.20;3.00;;;23.70;97.20;;;;;;1734219;28;20678;-75
2022/08/20 09:09:59;;;;;;;3.53;3.13;;;23.80;97.20;;;;;;1734222;28;20203;-76
2022/08/20 09:10:50;;;;;;;3.28;3.08;;;23.80;97.20;;;;;;1734289;28;20578;-75
2022/08/20 09:11:47;;;;;;;3.78;3.22;;;23.90;97.20;;;;;;1734035;28;20226;-75
2022/08/20 09:12:38;;;;;;;3.72;3.20;;;23.90;97.20;;;;;;1734359;28;20612;-76
2022/08/20 09:13:30;;;;;;;3.20;3.00;;;23.90;97.20;;;;;;1733906;28;20766;-75
2022/08/20 09:14:23;;;;;;;3.90;3.60;;;24.00;97.20;;;;;;1734499;28;20204;-75
2022/08/20 09:15:15;;;;;;;4.05;3.00;;;24.00;97.20;;;;;;1734139;28;20192;-75
2022/08/20 09:16:06;;;;;;;3.20;3.00;;;24.00;97.20;;;;;;1734045;28;20200;-76
2022/08/20 09:16:58;;;;;;;3.90;3.17;;;24.10;97.20;;;;;;1733914;28;20196;-75
2022/08/20 09:17:49;;;;;;;2.70;2.50;;;24.10;97.20;;;;;;1733778;28;20442;-76
2022/08/20 09:18:41;;;;;;;4.15;3.00;;;24.10;97.20;;;;;;1733580;28;20220;-75
2022/08/20 09:19:32;;;;;;;3.40;3.10;;;24.20;97.20;;;;;;1734330;28;20210;-76
2022/08/20 09:20:24;;;;;;;3.22;3.03;;;24.20;97.20;;;;;;1734489;28;20203;-75
2022/08/20 09:21:15;;;;;;;3.65;3.30;;;24.20;97.20;;;;;;1734323;28;20196;-74
2022/08/20 09:22:08;;;;;;;3.60;3.30;;;24.20;97.20;;;;;;1734146;28;20195;-75
2022/08/20 09:22:59;;;;;;;3.38;3.17;;;24.20;97.20;;;;;;1731342;28;20219;-75
2022/08/20 09:23:51;;;;;;;3.20;2.90;;;24.20;97.20;;;;;;1727188;28;20212;-75
2022/08/20 09:24:43;;;;;;;5.00;3.67;;;24.20;97.20;;;;;;1727359;28;20205;-75
2022/08/20 09:25:36;;;;;;;3.20;3.00;;;24.20;97.20;;;;;;1727575;28;20196;-75
2022/08/20 09:26:27;;;;;;;3.35;3.15;;;24.20;97.20;;;;;;1727287;28;20683;-75
2022/08/20 09:27:19;;;;;;;4.10;2.87;;;24.20;97.20;;;;;;1731824;28;20555;-75
2022/08/20 09:28:10;;;;;;;3.80;3.47;;;24.20;97.20;;;;;;1734370;28;20200;-75
2022/08/20 09:29:02;;;;;;;2.90;2.70;;;24.20;97.20;;;;;;1733993;28;20279;-75
2022/08/20 09:29:52;;;;;;;2.95;2.75;;;24.30;97.20;;;;;;1733681;28;20446;-75
2022/08/20 09:30:44;;;;;;;3.30;3.00;;;24.30;97.20;;;;;;1733789;28;20226;-75
2022/08/20 09:31:35;;;;;;;3.00;2.80;;;24.30;97.20;;;;;;1734110;28;20224;-75
2022/08/20 09:32:27;;;;;;;3.33;2.80;;;24.30;97.20;;;;;;1734287;28;20287;-75
2022/08/20 09:33:18;;;;;;;2.90;2.70;;;24.30;97.20;;;;;;1733784;28;20447;-73
2022/08/20 09:34:10;;;;;;;3.00;2.80;;;24.30;97.20;;;;;;1733973;28;20223;-73
2022/08/20 09:35:01;;;;;;;3.78;3.40;;;24.30;97.20;;;;;;1734332;28;20566;-73
2022/08/20 09:35:53;;;;;;;3.08;2.88;;;24.30;97.20;;;;;;1734423;28;20250;-72
2022/08/20 09:36:44;;;;;;;3.13;2.92;;;24.30;97.20;;;;;;1734352;28;20200;-72
2022/08/20 09:37:35;;;;;;;3.13;2.93;;;24.30;97.20;;;;;;1733872;28;20275;-73
2022/08/20 09:38:26;;;;;;;3.20;3.00;;;24.30;97.20;;;;;;1734634;28;20195;-72
2022/08/20 09:39:17;;;;;;;3.08;2.88;;;24.30;97.20;;;;;;1734054;28;20453;-73
2022/08/20 09:40:10;;;;;;;2.77;2.57;;;24.40;97.20;;;;;;1734411;28;20274;-73